Time;durP1;ratioP1;P1;durP2;ratioP2;P2;SDS_P1;SDS_P2;PMS_P1;PMS_P2;Temp;Humidity;BMP_temperature;BMP_pressure;BME280_temperature;BME280_humidity;BME280_pressure;Samples;Min_cycle;Max_cycle;Signal;HPM_P1;HPM_P2
2023/05/18 00:01:29;;;;;;;6.28;2.95;;;;;;;7.07;90.31;102735.84;5008681;28;20498;-67
2023/05/18 00:03:55;;;;;;;7.30;2.80;;;;;;;7.01;90.24;102734.63;5008832;28;20026;-67
2023/05/18 00:06:24;;;;;;;8.45;2.72;;;;;;;7.08;89.10;102735.66;5007724;28;20108;-67
2023/05/18 00:08:49;;;;;;;;;;;;;;;7.31;86.25;102729.66;5009945;28;20465;-67
2023/05/18 00:11:15;;;;;;;7.68;3.00;;;;;;;6.96;86.93;102734.25;4989841;28;19956;-67
2023/05/18 00:13:40;;;;;;;7.75;2.80;;;;;;;6.86;88.33;102733.50;4999700;28;20499;-66
2023/05/18 00:16:05;;;;;;;7.35;2.70;;;;;;;6.85;89.62;102737.25;5009069;28;20033;-67
2023/05/18 00:18:33;;;;;;;8.07;3.05;;;;;;;6.76;89.03;102733.59;5007361;28;20381;-67
2023/05/18 00:20:58;;;;;;;7.07;2.63;;;;;;;6.75;88.71;102735.47;5008858;28;20343;-67
2023/05/18 00:23:28;;;;;;;8.55;2.53;;;;;;;6.67;89.71;102729.94;5006837;28;20076;-67
2023/05/18 00:25:53;;;;;;;7.75;2.70;;;;;;;6.59;89.78;102735.34;5008480;28;20469;-67
2023/05/18 00:28:19;;;;;;;6.53;3.10;;;;;;;6.64;88.93;102734.84;5009249;28;20050;-67
2023/05/18 00:30:44;;;;;;;6.63;2.90;;;;;;;6.56;89.32;102730.19;5009120;28;20022;-66
2023/05/18 00:33:10;;;;;;;8.25;3.33;;;;;;;6.46;89.91;102730.28;5006380;28;20026;-67
2023/05/18 00:35:35;;;;;;;7.00;2.90;;;;;;;6.51;90.10;102732.53;5009016;28;20060;-67
2023/05/18 00:38:00;;;;;;;5.78;2.92;;;;;;;6.45;90.85;102731.28;5007413;28;20350;-67
2023/05/18 00:40:27;;;;;;;6.88;2.95;;;;;;;6.40;92.09;102744.56;5009054;28;20072;-67
2023/05/18 00:42:52;;;;;;;7.18;3.17;;;;;;;6.34;91.98;102749.78;5006992;28;20042;-67
2023/05/18 00:45:17;;;;;;;7.15;3.10;;;;;;;6.28;95.16;102744.94;5008846;28;20117;-67
2023/05/18 00:47:43;;;;;;;7.28;2.90;;;;;;;6.30;96.84;102742.94;5007870;28;20587;-67
2023/05/18 00:50:09;;;;;;;7.70;3.22;;;;;;;6.30;97.09;102740.19;5007885;28;20121;-67
2023/05/18 00:52:35;;;;;;;7.10;3.03;;;;;;;6.32;96.98;102736.28;5007275;28;20050;-67
2023/05/18 00:55:01;;;;;;;5.28;3.00;;;;;;;6.32;96.86;102743.59;5004377;28;20136;-67
2023/05/18 00:57:27;;;;;;;7.32;3.00;;;;;;;6.29;96.65;102741.22;5008978;28;20057;-67
2023/05/18 00:59:52;;;;;;;7.85;2.97;;;;;;;6.23;97.35;102738.09;5008571;28;20362;-66
2023/05/18 01:02:19;;;;;;;5.40;2.60;;;;;;;6.29;94.35;102741.22;5005743;28;20025;-66
2023/05/18 01:04:44;;;;;;;7.43;2.90;;;;;;;6.15;96.57;102739.88;5007421;28;20034;-67
2023/05/18 01:07:09;;;;;;;6.35;3.10;;;;;;;6.15;95.36;102739.88;5006034;28;20044;-67
2023/05/18 01:09:35;;;;;;;6.47;3.30;;;;;;;6.07;96.70;102740.63;5008175;28;20091;-67
2023/05/18 01:12:25;;;;;;;7.53;2.92;;;;;;;6.09;96.53;102740.50;5002976;28;20479;-67
2023/05/18 01:15:03;;;;;;;7.13;3.10;;;;;;;6.11;96.00;102742.03;5006195;28;20106;-67
2023/05/18 01:17:52;;;;;;;7.20;2.80;;;;;;;6.06;95.42;102747.09;5007598;28;20021;-67
2023/05/18 01:20:32;;;;;;;6.43;2.88;;;;;;;6.00;95.79;102745.00;5001111;28;20022;-66
2023/05/18 01:23:22;;;;;;;7.10;3.05;;;;;;;6.04;95.68;102751.88;5005331;28;20034;-67
2023/05/18 01:25:53;;;;;;;7.78;3.20;;;;;;;5.99;95.08;102751.47;5001511;28;20057;-67
2023/05/18 01:28:28;;;;;;;7.63;3.28;;;;;;;5.93;95.68;102752.06;5008524;28;20036;-67
2023/05/18 01:30:55;;;;;;;5.97;3.22;;;;;;;5.93;95.09;102757.53;5008223;28;20457;-67
2023/05/18 01:33:20;;;;;;;6.15;3.20;;;;;;;5.94;94.35;102753.81;5006911;28;20120;-67
2023/05/18 01:35:48;;;;;;;8.48;2.95;;;;;;;5.97;93.80;102753.47;5007261;28;20736;-67
2023/05/18 01:38:19;;;;;;;7.40;3.30;;;;;;;6.00;93.17;102758.66;5007002;28;20554;-67
2023/05/18 01:41:12;;;;;;;6.43;3.17;;;;;;;5.85;94.60;102750.09;5006575;28;20026;-67
2023/05/18 01:43:45;;;;;;;6.88;3.40;;;;;;;5.86;94.22;102748.22;5007013;28;20076;-67
2023/05/18 01:47:02;;;;;;;7.00;3.38;;;;;;;5.86;94.60;102750.94;5007030;28;20453;-67
2023/05/18 01:49:40;;;;;;;7.28;3.25;;;;;;;6.01;93.51;102754.03;4963046;28;20045;-67
2023/05/18 01:52:10;;;;;;;8.93;3.35;;;;;;;5.86;93.63;102746.34;5005416;28;20428;-66
2023/05/18 01:54:38;;;;;;;7.68;3.55;;;;;;;5.80;94.67;102743.38;5007714;28;20029;-66
2023/05/18 01:57:06;;;;;;;5.53;3.22;;;;;;;5.73;95.86;102749.44;5007405;28;20045;-67
2023/05/18 01:59:32;;;;;;;;;;;;;;;5.78;93.17;102750.84;5007993;28;20148;-67
2023/05/18 02:01:59;;;;;;;9.88;3.80;;;;;;;5.70;95.80;102749.75;5005513;28;19957;-67
2023/05/18 02:04:24;;;;;;;6.47;3.33;;;;;;;5.75;95.31;102746.56;5005822;28;20052;-67
2023/05/18 02:06:53;;;;;;;6.82;3.30;;;;;;;5.72;95.70;102744.97;5007264;28;20530;-67
2023/05/18 02:09:21;;;;;;;7.65;3.25;;;;;;;5.68;95.69;102740.88;5006753;28;20020;-67
2023/05/18 02:11:47;;;;;;;7.90;3.20;;;;;;;5.79;94.67;102749.84;5006590;28;20037;-67
2023/05/18 02:14:12;;;;;;;6.95;3.47;;;;;;;5.75;94.95;102746.56;5005375;28;20030;-67
2023/05/18 02:16:37;;;;;;;8.27;3.70;;;;;;;5.59;97.74;102744.50;5006072;28;20048;-67
2023/05/18 02:19:03;;;;;;;7.90;3.85;;;;;;;5.63;97.89;102739.63;5005448;28;20045;-67
2023/05/18 02:21:28;;;;;;;7.05;3.40;;;;;;;5.77;95.51;102735.50;5005730;28;20032;-66
2023/05/18 02:23:53;;;;;;;6.97;3.53;;;;;;;5.59;98.06;102736.31;4995523;28;20465;-67
2023/05/18 02:26:19;;;;;;;8.38;4.00;;;;;;;5.63;97.10;102735.03;5006336;28;20037;-67
2023/05/18 02:28:45;;;;;;;7.05;3.33;;;;;;;5.69;96.02;102731.69;5006807;28;20022;-67
2023/05/18 02:31:11;;;;;;;6.95;3.55;;;;;;;5.67;95.89;102733.69;5005676;28;20176;-67
2023/05/18 02:33:40;;;;;;;11.23;3.80;;;;;;;5.59;95.91;102728.16;5006107;28;20037;-67
2023/05/18 02:36:12;;;;;;;8.25;3.72;;;;;;;5.55;96.65;102734.06;5006014;28;20124;-67
2023/05/18 02:38:40;;;;;;;6.10;3.47;;;;;;;5.53;96.12;102731.50;5007248;28;20065;-67
2023/05/18 02:41:07;;;;;;;6.90;3.40;;;;;;;5.50;96.53;102730.94;5006136;28;20053;-67
2023/05/18 02:43:32;;;;;;;8.20;3.90;;;;;;;5.50;96.81;102731.78;5005410;28;20456;-67
2023/05/18 02:45:57;;;;;;;9.02;3.70;;;;;;;5.55;95.66;102729.47;5002084;28;20041;-67
2023/05/18 02:48:23;;;;;;;7.68;3.78;;;;;;;5.49;96.12;102727.34;5004320;28;20037;-67
2023/05/18 02:50:48;;;;;;;7.32;3.67;;;;;;;5.44;96.13;102721.50;4999024;28;20496;-67
2023/05/18 02:53:14;;;;;;;6.15;3.40;;;;;;;5.41;96.77;102719.91;5002328;28;20114;-67
2023/05/18 02:55:40;;;;;;;8.45;3.78;;;;;;;5.48;96.46;102725.63;4995835;28;20029;-67
2023/05/18 02:58:05;;;;;;;7.03;3.75;;;;;;;5.39;97.06;102726.53;4997152;28;20042;-67
2023/05/18 03:00:31;;;;;;;6.90;4.10;;;;;;;5.40;96.95;102722.78;4989014;28;20029;-67
2023/05/18 03:02:59;;;;;;;6.80;3.72;;;;;;;5.37;97.48;102728.53;4994558;28;20455;-67
2023/05/18 03:05:24;;;;;;;7.55;4.80;;;;;;;5.38;96.86;102727.56;4997386;28;20118;-67
2023/05/18 03:07:51;;;;;;;7.13;3.75;;;;;;;5.30;98.40;102727.44;4995450;28;20088;-67
2023/05/18 03:10:16;;;;;;;6.80;3.92;;;;;;;5.25;99.00;102727.88;4989588;28;20041;-66
2023/05/18 03:12:41;;;;;;;6.47;3.42;;;;;;;5.25;98.79;102729.75;4998040;28;20029;-67
2023/05/18 03:15:08;;;;;;;6.68;3.90;;;;;;;5.32;98.21;102733.56;5001597;28;20032;-67
2023/05/18 03:17:33;;;;;;;8.30;4.07;;;;;;;5.23;98.84;102726.31;5001566;28;20443;-67
2023/05/18 03:19:58;;;;;;;6.95;3.88;;;;;;;5.26;99.16;102731.44;5000220;28;20045;-67
2023/05/18 03:22:24;;;;;;;6.97;3.65;;;;;;;5.22;98.98;102730.91;4993603;28;20041;-67
2023/05/18 03:24:50;;;;;;;7.80;3.90;;;;;;;5.18;99.10;102735.78;4995289;28;20025;-67
2023/05/18 03:27:17;;;;;;;7.38;3.95;;;;;;;5.23;99.33;102732.63;4997044;28;20065;-67
2023/05/18 03:29:42;;;;;;;5.57;3.78;;;;;;;5.24;98.55;102728.88;5001594;28;20342;-67
2023/05/18 03:32:08;;;;;;;7.38;4.20;;;;;;;5.18;98.50;102734.94;4996618;28;20038;-67
2023/05/18 03:34:33;;;;;;;8.13;3.63;;;;;;;5.14;98.93;102728.06;4994287;28;20018;-67
2023/05/18 03:36:59;;;;;;;9.02;3.85;;;;;;;5.21;97.91;102732.75;5000003;28;20461;-67
2023/05/18 03:39:24;;;;;;;8.65;4.25;;;;;;;5.13;99.08;102737.25;4996615;28;20037;-67
2023/05/18 03:41:50;;;;;;;7.47;4.10;;;;;;;5.08;100.00;102739.56;4993327;28;20028;-67
2023/05/18 03:44:15;;;;;;;9.45;4.10;;;;;;;5.10;99.91;102732.94;4984538;28;20053;-67
2023/05/18 03:46:40;;;;;;;8.55;4.15;;;;;;;5.17;98.76;102728.63;4998486;28;20745;-66
2023/05/18 03:49:06;;;;;;;9.70;4.20;;;;;;;5.14;99.06;102723.47;4987993;28;20445;-66
2023/05/18 03:51:32;;;;;;;9.38;4.25;;;;;;;5.10;99.28;102738.38;5000212;28;20081;-66
2023/05/18 03:53:58;;;;;;;7.30;4.22;;;;;;;5.09;99.50;102733.97;4999252;28;20087;-67
2023/05/18 03:56:23;;;;;;;8.13;3.92;;;;;;;5.05;99.93;102735.25;5008430;28;20436;-67
2023/05/18 03:58:50;;;;;;;7.97;4.00;;;;;;;5.09;99.42;102738.53;5010048;28;20121;-67
2023/05/18 04:01:17;;;;;;;9.10;4.13;;;;;;;5.02;100.00;102738.28;5007289;28;20030;-66
2023/05/18 04:03:44;;;;;;;7.40;4.10;;;;;;;5.06;100.00;102752.44;5009773;28;20113;-67
2023/05/18 04:06:09;;;;;;;7.85;4.28;;;;;;;5.04;100.00;102749.03;5008891;28;20048;-66
2023/05/18 04:08:35;;;;;;;9.00;4.32;;;;;;;5.06;100.00;102747.00;5007720;28;20030;-67
2023/05/18 04:11:01;;;;;;;10.45;4.43;;;;;;;5.04;100.00;102752.59;5008861;28;20034;-66
2023/05/18 04:13:26;;;;;;;7.97;4.25;;;;;;;5.19;99.78;102748.41;5008088;28;20420;-67
2023/05/18 04:15:52;;;;;;;6.45;3.80;;;;;;;5.09;100.00;102755.75;5008689;28;20092;-66
2023/05/18 04:18:17;;;;;;;7.05;4.63;;;;;;;5.13;100.00;102757.16;5008885;28;20042;-67
2023/05/18 04:20:44;;;;;;;7.47;4.15;;;;;;;5.19;100.00;102761.16;5008675;28;20460;-66
2023/05/18 04:23:11;;;;;;;8.85;4.28;;;;;;;5.21;100.00;102760.00;5007790;28;20022;-67
2023/05/18 04:25:38;;;;;;;8.65;4.45;;;;;;;5.28;100.00;102751.25;5002132;28;20064;-67
2023/05/18 04:28:03;;;;;;;7.68;4.28;;;;;;;5.28;100.00;102752.09;5008757;28;20022;-67
2023/05/18 04:30:29;;;;;;;7.22;4.03;;;;;;;5.39;99.16;102753.78;5008400;28;20440;-67
2023/05/18 04:32:57;;;;;;;7.90;4.35;;;;;;;5.33;99.98;102751.66;5009405;28;20080;-67
2023/05/18 04:35:24;;;;;;;8.45;4.50;;;;;;;5.34;99.17;102756.94;5009497;28;20061;-67
2023/05/18 04:37:49;;;;;;;8.55;4.53;;;;;;;5.31;100.00;102761.84;5009105;28;20026;-66
2023/05/18 04:40:15;;;;;;;7.43;3.95;;;;;;;5.33;100.00;102770.72;5008290;28;20018;-67
2023/05/18 04:42:46;;;;;;;8.15;4.60;;;;;;;5.35;100.00;102757.81;5006930;28;20091;-67
2023/05/18 04:45:16;;;;;;;6.70;4.32;;;;;;;5.34;100.00;102758.81;5008541;28;20030;-67
2023/05/18 04:47:45;;;;;;;9.68;4.10;;;;;;;5.42;99.91;102764.34;5008424;28;20429;-67
2023/05/18 04:50:14;;;;;;;6.68;4.22;;;;;;;5.42;100.00;102762.53;5007046;28;20027;-67
2023/05/18 04:52:49;;;;;;;9.40;4.45;;;;;;;5.44;100.00;102771.41;5008745;28;20060;-67
2023/05/18 04:55:24;;;;;;;7.75;4.07;;;;;;;5.64;97.63;102763.13;5008141;28;20040;-67
2023/05/18 04:57:52;;;;;;;7.53;4.50;;;;;;;5.47;99.18;102768.38;5009234;28;20053;-67
2023/05/18 05:00:19;;;;;;;9.02;4.65;;;;;;;5.50;99.75;102769.94;5007846;28;20053;-67
2023/05/18 05:02:44;;;;;;;9.25;3.90;;;;;;;5.55;98.36;102773.06;5005971;28;20025;-67
2023/05/18 05:05:09;;;;;;;9.73;4.60;;;;;;;5.56;98.85;102777.50;5007401;28;20030;-67
2023/05/18 05:07:35;;;;;;;9.00;4.57;;;;;;;5.62;97.83;102773.31;5007978;28;20522;-67
2023/05/18 05:10:00;;;;;;;8.23;4.10;;;;;;;5.62;97.86;102782.34;5002623;28;20052;-67
2023/05/18 05:12:26;;;;;;;7.75;4.25;;;;;;;5.60;97.46;102778.91;5006415;28;20388;-67
2023/05/18 05:14:51;;;;;;;9.23;4.00;;;;;;;5.59;98.50;102779.09;5008411;28;20038;-67
2023/05/18 05:17:16;;;;;;;9.05;4.43;;;;;;;5.64;97.41;102764.00;5003877;28;20427;-67
2023/05/18 05:19:41;;;;;;;7.68;4.53;;;;;;;5.66;98.46;102777.47;5008322;28;20036;-67
2023/05/18 05:22:07;;;;;;;10.15;4.53;;;;;;;5.75;96.88;102776.56;5007394;28;20038;-67
2023/05/18 05:24:32;;;;;;;8.88;4.28;;;;;;;5.68;98.06;102775.47;5007238;28;20021;-67
2023/05/18 05:26:57;;;;;;;7.10;4.32;;;;;;;5.75;97.28;102776.56;5007870;28;20030;-67
2023/05/18 05:29:25;;;;;;;8.30;4.10;;;;;;;5.76;97.51;102775.53;5007741;28;20029;-67
2023/05/18 05:31:50;;;;;;;7.82;3.88;;;;;;;5.89;95.77;102786.09;5007806;28;20041;-67
2023/05/18 05:34:15;;;;;;;9.32;4.10;;;;;;;5.87;96.22;102785.38;5006221;28;20038;-67
2023/05/18 05:36:41;;;;;;;10.35;4.63;;;;;;;5.92;95.94;102780.34;5007625;28;20053;-67
2023/05/18 05:39:06;;;;;;;6.65;4.30;;;;;;;5.94;95.68;102794.72;5007747;28;20061;-66
2023/05/18 05:41:31;;;;;;;8.07;4.50;;;;;;;5.84;97.08;102780.25;5008591;28;20449;-66
2023/05/18 05:43:57;;;;;;;8.70;4.03;;;;;;;5.92;95.98;102783.09;5005000;28;20034;-67
2023/05/18 05:46:23;;;;;;;7.07;4.07;;;;;;;5.86;97.02;102773.63;5006998;28;20496;-67
2023/05/18 05:48:48;;;;;;;6.53;3.92;;;;;;;5.94;95.88;102781.09;5008764;28;20056;-67
2023/05/18 05:51:13;;;;;;;9.35;4.45;;;;;;;6.00;96.09;102775.00;5007228;28;20628;-67
2023/05/18 05:53:39;;;;;;;7.38;4.78;;;;;;;5.99;95.83;102778.75;5006855;28;20041;-67
2023/05/18 05:56:06;;;;;;;9.32;4.50;;;;;;;6.04;95.81;102781.88;5007061;28;20022;-66
2023/05/18 05:58:32;;;;;;;7.93;4.10;;;;;;;6.10;97.23;102788.59;5007788;28;20053;-67
2023/05/18 06:00:57;;;;;;;8.93;4.45;;;;;;;6.26;96.08;102779.72;5004562;28;20061;-66
2023/05/18 06:03:22;;;;;;;9.52;4.43;;;;;;;6.30;95.41;102771.06;5006852;28;20533;-67
2023/05/18 06:05:48;;;;;;;7.82;4.32;;;;;;;6.39;96.18;102774.75;5004332;28;20096;-67
2023/05/18 06:08:14;;;;;;;8.60;4.75;;;;;;;6.45;95.79;102780.44;5006182;28;20034;-67
2023/05/18 06:10:40;;;;;;;7.97;4.53;;;;;;;6.57;94.61;102772.84;5006450;28;20041;-66
2023/05/18 06:13:06;;;;;;;8.20;4.30;;;;;;;6.70;93.09;102781.50;4988307;28;20393;-66
2023/05/18 06:15:31;;;;;;;9.90;4.53;;;;;;;6.72;93.65;102776.72;5001567;28;20114;-67
2023/05/18 06:17:56;;;;;;;9.73;4.43;;;;;;;6.85;93.98;102776.34;5003375;28;20056;-66
2023/05/18 06:20:22;;;;;;;10.60;4.65;;;;;;;7.07;93.61;102782.28;5007513;28;20057;-66
2023/05/18 06:22:47;;;;;;;9.30;4.40;;;;;;;7.19;90.11;102773.66;5003313;28;20095;-66
2023/05/18 06:25:12;;;;;;;7.10;3.85;;;;;;;7.43;87.29;102783.03;5007046;28;20040;-67
2023/05/18 06:27:37;;;;;;;9.60;4.10;;;;;;;7.33;88.83;102774.06;5006502;28;20037;-67
2023/05/18 06:30:04;;;;;;;9.35;4.63;;;;;;;7.40;90.08;102784.22;5003961;28;20075;-66
2023/05/18 06:32:29;;;;;;;6.75;4.50;;;;;;;7.52;89.31;102779.31;5004494;28;20058;-66
2023/05/18 06:34:55;;;;;;;9.85;4.45;;;;;;;7.65;87.55;102784.31;5006130;28;20064;-67
2023/05/18 06:37:20;;;;;;;7.63;4.22;;;;;;;7.87;84.23;102777.41;5004854;28;20061;-67
2023/05/18 06:39:45;;;;;;;8.30;4.38;;;;;;;7.86;85.69;102784.78;5005835;28;20080;-67
2023/05/18 06:42:11;;;;;;;9.10;4.25;;;;;;;7.92;84.03;102794.19;5005104;28;20060;-67
2023/05/18 06:44:36;;;;;;;8.70;4.20;;;;;;;7.90;87.76;102790.75;5007888;28;20124;-67
2023/05/18 06:47:01;;;;;;;10.23;4.93;;;;;;;8.05;84.23;102791.81;5006483;28;20680;-67
2023/05/18 06:49:27;;;;;;;9.13;4.32;;;;;;;8.16;82.96;102776.97;5007361;28;20649;-67
2023/05/18 06:51:52;;;;;;;9.77;4.28;;;;;;;8.18;84.28;102785.88;5006500;28;20034;-67
2023/05/18 06:54:17;;;;;;;8.50;4.25;;;;;;;8.27;83.74;102784.88;5007073;28;20369;-67
2023/05/18 06:56:42;;;;;;;10.18;4.28;;;;;;;8.44;78.85;102783.06;5007294;28;20030;-66
2023/05/18 06:59:08;;;;;;;7.15;3.33;;;;;;;8.64;78.72;102791.81;5006472;28;20535;-67
2023/05/18 07:01:33;;;;;;;9.63;4.30;;;;;;;8.71;79.55;102795.56;5005214;28;20026;-67
2023/05/18 07:03:58;;;;;;;9.52;4.78;;;;;;;8.75;79.06;102803.28;4996346;28;20026;-67
2023/05/18 07:06:24;;;;;;;9.98;4.40;;;;;;;8.83;78.40;102795.06;4986653;28;20022;-67
2023/05/18 07:08:49;;;;;;;9.77;3.78;;;;;;;8.91;77.64;102799.66;4987436;28;20048;-67
2023/05/18 07:11:14;;;;;;;8.70;4.30;;;;;;;8.95;79.69;102801.03;4987252;28;20018;-66
2023/05/18 07:13:40;;;;;;;5.72;3.55;;;;;;;9.06;78.53;102797.09;5006539;28;20117;-66
2023/05/18 07:16:05;;;;;;;10.30;4.45;;;;;;;9.21;79.22;102797.25;5005709;28;20425;-66
2023/05/18 07:18:30;;;;;;;8.75;3.00;;;;;;;9.55;72.76;102794.25;5006494;28;20037;-67
2023/05/18 07:20:56;;;;;;;9.38;4.18;;;;;;;9.42;75.34;102799.44;4996657;28;20037;-67
2023/05/18 07:23:22;;;;;;;9.18;4.00;;;;;;;9.48;73.25;102798.72;4995177;28;20037;-66
2023/05/18 07:25:48;;;;;;;6.15;3.53;;;;;;;9.56;71.80;102795.97;5001332;28;20030;-67
2023/05/18 07:28:13;;;;;;;8.68;3.80;;;;;;;9.66;73.46;102802.09;4995975;28;20039;-66
2023/05/18 07:30:38;;;;;;;7.85;3.53;;;;;;;9.83;73.05;102795.53;5005868;28;20029;-66
2023/05/18 07:33:04;;;;;;;7.28;3.65;;;;;;;9.93;74.28;102800.78;4991879;28;20076;-67
2023/05/18 07:35:29;;;;;;;7.43;3.72;;;;;;;10.19;71.92;102806.00;5000453;28;20572;-66
2023/05/18 07:37:56;;;;;;;8.02;4.00;;;;;;;10.55;70.91;102805.44;4998789;28;20081;-67
2023/05/18 07:40:23;;;;;;;7.05;3.83;;;;;;;11.08;69.42;102796.22;4998257;28;20049;-66
2023/05/18 07:42:49;;;;;;;7.50;3.25;;;;;;;11.50;65.92;102813.16;4997196;28;20544;-67
2023/05/18 07:45:14;;;;;;;7.88;3.60;;;;;;;12.04;64.86;102810.16;5001215;28;20064;-67
2023/05/18 07:47:39;;;;;;;7.70;3.88;;;;;;;12.18;64.90;102806.50;4999565;28;20060;-67
2023/05/18 07:50:05;;;;;;;6.22;3.30;;;;;;;12.36;65.19;102806.91;5006501;28;20113;-67
2023/05/18 07:52:31;;;;;;;8.13;3.53;;;;;;;12.16;64.45;102825.13;5009266;28;20044;-68
2023/05/18 07:54:56;;;;;;;6.95;3.33;;;;;;;11.78;63.29;102824.38;5005811;28;20029;-65
2023/05/18 07:57:23;;;;;;;9.30;4.05;;;;;;;11.36;66.29;102826.75;5010361;28;20033;-65
2023/05/18 07:59:48;;;;;;;8.68;3.80;;;;;;;11.29;63.08;102817.50;5007423;28;20029;-65
2023/05/18 08:02:15;;;;;;;7.80;3.72;;;;;;;10.95;65.67;102826.28;5007172;28;20026;-65
2023/05/18 08:04:41;;;;;;;8.45;3.90;;;;;;;10.80;68.03;102830.84;5008014;28;20465;-65
2023/05/18 08:07:07;;;;;;;8.10;3.72;;;;;;;10.82;66.36;102829.63;5005914;28;20044;-63
2023/05/18 08:09:33;;;;;;;8.25;3.55;;;;;;;10.87;64.01;102827.19;5008808;28;20402;-64
2023/05/18 08:11:58;;;;;;;10.60;3.50;;;;;;;10.79;66.96;102832.72;5009673;28;20033;-64
2023/05/18 08:14:23;;;;;;;9.65;4.15;;;;;;;10.97;64.94;102826.06;5007066;28;20030;-63
2023/05/18 08:16:48;;;;;;;8.60;3.58;;;;;;;10.91;65.50;102824.91;5005745;28;20021;-63
2023/05/18 08:19:14;;;;;;;7.55;3.53;;;;;;;10.99;62.86;102824.84;5008977;28;20029;-64
2023/05/18 08:21:39;;;;;;;9.95;3.78;;;;;;;10.81;66.73;102833.41;5007658;28;20033;-63
2023/05/18 08:24:06;;;;;;;8.90;3.78;;;;;;;11.14;67.97;102835.88;5007711;28;20028;-63
2023/05/18 08:26:31;;;;;;;7.60;3.60;;;;;;;11.29;63.65;102823.00;5008488;28;20106;-63
2023/05/18 08:28:57;;;;;;;8.40;3.05;;;;;;;11.21;61.55;102823.09;5008373;28;20464;-62
2023/05/18 08:31:22;;;;;;;8.88;3.92;;;;;;;11.25;67.73;102818.91;5007962;28;20473;-63
2023/05/18 08:33:47;;;;;;;7.82;3.88;;;;;;;11.40;66.49;102822.56;5007268;28;20025;-62
2023/05/18 08:36:13;;;;;;;7.10;3.58;;;;;;;11.46;63.03;102820.13;5007383;28;20389;-63
2023/05/18 08:38:38;;;;;;;7.22;3.35;;;;;;;11.46;65.66;102814.63;5009051;28;20382;-63
2023/05/18 08:41:25;;;;;;;7.28;3.20;;;;;;;11.63;68.01;102810.63;5005884;28;20061;-62
2023/05/18 08:44:05;;;;;;;7.85;3.63;;;;;;;11.85;64.47;102812.44;5008653;28;20056;-63
2023/05/18 08:46:32;;;;;;;8.90;3.28;;;;;;;11.85;61.47;102814.34;5008321;28;20114;-63
2023/05/18 08:48:59;;;;;;;8.70;3.08;;;;;;;11.79;62.50;102817.81;5007572;28;20100;-63
2023/05/18 08:51:28;;;;;;;8.25;3.35;;;;;;;11.98;64.71;102809.00;5008787;28;20060;-63
2023/05/18 08:53:53;;;;;;;8.63;3.50;;;;;;;11.98;60.48;102808.16;5007568;28;20033;-63
2023/05/18 08:56:23;;;;;;;7.93;3.08;;;;;;;12.18;60.83;102798.25;5008916;28;20029;-63
2023/05/18 08:58:51;;;;;;;7.97;2.88;;;;;;;12.54;59.89;102802.88;5009667;28;20026;-63
2023/05/18 09:01:16;;;;;;;7.20;2.53;;;;;;;12.75;58.10;102800.13;5007492;28;20022;-62
2023/05/18 09:03:43;;;;;;;7.00;2.60;;;;;;;12.91;57.36;102799.84;5007485;28;20041;-63
2023/05/18 09:06:09;;;;;;;7.82;2.60;;;;;;;13.04;58.21;102798.28;5007935;28;20053;-62
2023/05/18 09:08:35;;;;;;;4.70;2.58;;;;;;;13.24;55.61;102796.56;5008461;28;20623;-62
2023/05/18 09:11:01;;;;;;;8.35;3.30;;;;;;;13.52;61.77;102801.19;5008164;28;20029;-63
2023/05/18 09:13:28;;;;;;;7.13;2.90;;;;;;;13.46;54.10;102795.44;5004611;28;20116;-62
2023/05/18 09:15:53;;;;;;;8.15;3.05;;;;;;;13.66;54.01;102787.25;5004038;28;20592;-63
2023/05/18 09:18:18;;;;;;;6.97;2.60;;;;;;;13.91;58.73;102779.31;5006155;28;20142;-63
2023/05/18 09:20:44;;;;;;;8.90;2.97;;;;;;;14.06;54.64;102784.69;5007057;28;20393;-62
2023/05/18 09:23:11;;;;;;;6.50;2.95;;;;;;;14.36;57.81;102787.13;5007412;28;20112;-63
2023/05/18 09:25:43;;;;;;;6.97;2.63;;;;;;;14.48;51.71;102786.34;5007250;28;20427;-63
2023/05/18 09:28:09;;;;;;;5.95;2.33;;;;;;;15.38;52.57;102780.41;5007883;28;20409;-63
2023/05/18 09:30:42;;;;;;;7.50;2.70;;;;;;;16.51;48.66;102776.13;5007534;28;20485;-63
2023/05/18 09:33:17;;;;;;;9.20;2.28;;;;;;;17.42;46.02;102780.31;5004504;28;20026;-62
2023/05/18 09:35:45;;;;;;;7.05;2.70;;;;;;;19.37;40.28;102773.50;5005980;28;20571;-63
2023/05/18 09:38:12;;;;;;;6.22;2.10;;;;;;;20.83;41.52;102779.59;5007390;28;20071;-63
2023/05/18 09:40:42;;;;;;;5.95;2.50;;;;;;;22.05;36.71;102775.03;5008379;28;20022;-63
2023/05/18 09:43:07;;;;;;;7.05;2.35;;;;;;;22.15;36.14;102771.50;5005354;28;20049;-62
2023/05/18 09:45:33;;;;;;;6.07;2.10;;;;;;;22.44;32.33;102763.72;5006555;28;20030;-62
2023/05/18 09:47:58;;;;;;;5.97;2.40;;;;;;;23.27;34.59;102770.66;5006191;28;20595;-63
2023/05/18 09:50:24;;;;;;;5.88;2.00;;;;;;;23.96;31.12;102768.78;5007543;28;20034;-63
2023/05/18 09:52:49;;;;;;;5.22;2.40;;;;;;;23.38;31.25;102770.72;5006902;28;20025;-62
2023/05/18 09:55:15;;;;;;;6.97;2.17;;;;;;;23.36;32.29;102770.97;5004783;28;20112;-63
2023/05/18 09:57:50;;;;;;;7.82;2.60;;;;;;;23.61;31.59;102763.81;5007962;28;20030;-62
2023/05/18 10:00:18;;;;;;;5.80;2.40;;;;;;;23.66;32.15;102770.34;5006742;28;20029;-63
2023/05/18 10:02:51;;;;;;;;;;;;;;;24.74;34.16;102768.75;5005332;28;20033;-63
2023/05/18 10:05:26;;;;;;;6.15;2.30;;;;;;;25.07;30.32;102772.97;5007609;28;19917;-63
2023/05/18 10:07:51;;;;;;;6.28;2.10;;;;;;;25.55;29.31;102767.84;5007566;28;20073;-62
2023/05/18 10:10:21;;;;;;;7.60;2.30;;;;;;;25.93;29.03;102760.69;5006378;28;20034;-62
2023/05/18 10:12:49;;;;;;;5.50;2.35;;;;;;;26.12;25.90;102761.72;5005410;28;20493;-62
2023/05/18 10:15:16;;;;;;;7.72;2.67;;;;;;;26.31;28.42;102761.91;5006575;28;20076;-62
2023/05/18 10:17:42;;;;;;;7.00;2.25;;;;;;;26.46;29.02;102758.19;4990928;28;20025;-63
2023/05/18 10:20:09;;;;;;;5.30;2.30;;;;;;;26.23;27.97;102759.69;4985136;28;20374;-62
2023/05/18 10:22:35;;;;;;;7.03;2.50;;;;;;;26.25;25.25;102759.38;4985049;28;20026;-62
2023/05/18 10:25:04;;;;;;;6.70;2.70;;;;;;;24.22;29.21;102755.69;4985520;28;20029;-61
2023/05/18 10:27:33;;;;;;;8.80;2.92;;;;;;;24.60;30.48;102743.16;4985487;28;20030;-62
2023/05/18 10:29:58;;;;;;;6.70;2.67;;;;;;;25.10;30.38;102747.13;4984519;28;20034;-62
2023/05/18 10:32:24;;;;;;;5.50;2.60;;;;;;;23.73;28.47;102740.09;4985322;28;20394;-63
2023/05/18 10:34:52;;;;;;;5.90;2.88;;;;;;;23.58;29.44;102748.41;4985483;28;20403;-62
2023/05/18 10:37:21;;;;;;;7.18;3.17;;;;;;;23.73;31.33;102744.84;4984707;28;20158;-61
2023/05/18 10:39:49;;;;;;;6.55;2.83;;;;;;;24.74;29.69;102738.66;4985349;28;20690;-62
2023/05/18 10:42:16;;;;;;;5.03;2.47;;;;;;;25.10;27.20;102744.31;4984522;28;20037;-62
2023/05/18 10:44:42;;;;;;;5.95;2.75;;;;;;;24.68;28.40;102741.75;4984257;28;20077;-62
2023/05/18 10:47:10;;;;;;;6.28;3.03;;;;;;;24.11;28.30;102739.94;4984911;28;20049;-62
2023/05/18 10:49:36;;;;;;;7.72;2.88;;;;;;;21.90;31.07;102742.09;4985178;28;20034;-62
2023/05/18 10:52:02;;;;;;;6.90;2.72;;;;;;;20.85;33.16;102743.91;4984448;28;20043;-62
2023/05/18 10:54:29;;;;;;;7.40;3.05;;;;;;;19.57;37.07;102736.88;4985035;28;20126;-62
2023/05/18 10:56:54;;;;;;;5.78;2.80;;;;;;;19.25;36.45;102739.19;4999792;28;20053;-62
2023/05/18 10:59:22;;;;;;;5.93;2.65;;;;;;;19.12;36.18;102741.16;4985259;28;20062;-62
2023/05/18 11:01:50;;;;;;;6.53;3.10;;;;;;;18.34;40.19;102747.75;4984638;28;20053;-62
2023/05/18 11:04:15;;;;;;;6.75;2.92;;;;;;;18.06;38.23;102734.47;4984657;28;20477;-62
2023/05/18 11:06:41;;;;;;;7.45;2.97;;;;;;;17.92;37.70;102730.16;4984559;28;20057;-62
2023/05/18 11:09:07;;;;;;;7.35;3.08;;;;;;;17.32;42.64;102732.75;4984661;28;20023;-60
2023/05/18 11:11:58;;;;;;;8.20;3.70;;;;;;;17.27;42.26;102727.03;4984665;28;20018;-62
2023/05/18 11:14:26;;;;;;;8.13;3.20;;;;;;;17.41;42.10;102723.06;4984304;28;20493;-62
2023/05/18 11:16:52;;;;;;;8.25;3.28;;;;;;;17.61;39.63;102717.28;4995273;28;20017;-62
2023/05/18 11:19:19;;;;;;;5.95;2.95;;;;;;;17.72;42.79;102716.47;5004185;28;20700;-62
2023/05/18 11:21:45;;;;;;;9.52;3.30;;;;;;;17.87;43.83;102718.88;5003973;28;20201;-62
2023/05/18 11:24:30;;;;;;;7.43;3.10;;;;;;;18.24;44.65;102713.25;5003667;28;20501;-62
2023/05/18 11:27:02;;;;;;;7.25;3.08;;;;;;;18.35;40.47;102709.66;5004373;28;20053;-62
2023/05/18 11:29:43;;;;;;;6.70;3.13;;;;;;;18.50;41.70;102714.75;5003403;28;20026;-61
2023/05/18 11:32:22;;;;;;;9.07;3.60;;;;;;;18.66;43.19;102717.72;5003803;28;20477;-61